Time;durP1;ratioP1;P1;durP2;ratioP2;P2;SDS_P1;SDS_P2;PMS_P1;PMS_P2;Temp;Humidity;BMP_temperature;BMP_pressure;BME280_temperature;BME280_humidity;BME280_pressure;Samples;Min_cycle;Max_cycle;Signal;HPM_P1;HPM_P2
2022/05/01 02:08:13;;;;;;;23.57;16.83;;;8.90;99.90;;;;;;4959980;23;21804;31
2022/05/01 02:10:39;;;;;;;26.70;17.03;;;8.90;99.90;;;;;;4977528;28;20238;-93
2022/05/01 02:13:13;;;;;;;25.97;18.33;;;8.80;99.90;;;;;;5011498;28;20174;-93
2022/05/01 02:15:42;;;;;;;23.50;17.73;;;8.80;99.90;;;;;;4997160;28;20173;-96
2022/05/01 02:18:09;;;;;;;23.47;17.53;;;8.70;99.90;;;;;;4996790;28;20246;-94
2022/05/01 02:23:29;;;;;;;26.77;19.27;;;8.60;99.90;;;;;;4997270;28;20243;-91
2022/05/01 02:25:58;;;;;;;27.63;18.53;;;8.70;99.90;;;;;;4991848;28;20164;-96
2022/05/01 02:28:29;;;;;;;31.33;20.13;;;8.70;99.90;;;;;;4980340;28;20207;-96
2022/05/01 02:30:55;;;;;;;27.27;19.43;;;8.80;99.90;;;;;;4996443;28;20200;-96
2022/05/01 02:33:20;;;;;;;28.20;19.83;;;8.90;99.90;;;;;;4992711;28;20247;-91
2022/05/01 02:35:49;;;;;;;27.73;20.03;;;8.80;99.90;;;;;;4977800;28;20168;-91
2022/05/01 02:38:20;;;;;;;30.30;19.83;;;8.80;99.90;;;;;;5010092;28;20195;-90
2022/05/01 02:40:45;;;;;;;28.20;19.87;;;8.70;99.90;;;;;;4994869;28;20178;-91
2022/05/01 02:43:12;;;;;;;32.30;21.53;;;8.70;99.90;;;;;;4978232;28;20190;-90
2022/05/01 02:45:39;;;;;;;28.50;19.90;;;8.70;99.90;;;;;;4981084;28;20246;-94
2022/05/01 02:48:10;;;;;;;28.77;20.37;;;8.70;99.90;;;;;;4979348;28;20218;-93
2022/05/01 02:50:40;;;;;;;29.53;20.97;;;8.80;99.90;;;;;;4966264;28;20183;-95
2022/05/01 02:53:06;;;;;;;30.33;20.40;;;8.80;99.90;;;;;;4982062;28;20171;-95
2022/05/01 02:55:34;;;;;;;30.60;20.50;;;8.80;99.90;;;;;;4981322;28;20182;-94
2022/05/01 02:58:00;;;;;;;34.77;20.93;;;8.70;99.90;;;;;;4981105;28;20202;-92
2022/05/01 03:00:26;;;;;;;32.23;21.40;;;8.70;99.90;;;;;;4982706;28;20167;-92
2022/05/01 03:02:55;;;;;;;32.03;21.00;;;8.60;99.90;;;;;;4981858;28;20282;-91
2022/05/01 03:05:21;;;;;;;26.17;19.77;;;8.50;99.90;;;;;;4981935;28;20170;-96
2022/05/01 03:07:48;;;;;;;30.33;19.87;;;8.50;99.90;;;;;;4981463;28;20312;-96
2022/05/01 03:10:20;;;;;;;30.70;20.87;;;8.50;99.90;;;;;;4998462;28;20174;-96
2022/05/01 03:12:45;;;;;;;35.37;20.77;;;8.60;99.90;;;;;;4982637;28;20191;-96
2022/05/01 15:10:22;;;;;;;7.33;5.23;;;26.00;51.80;;;;;;842646;23;20723;-93
2022/05/01 15:12:48;;;;;;;8.97;6.03;;;26.80;51.00;;;;;;4994123;28;20280;-91
2022/05/01 15:15:18;;;;;;;5.80;5.13;;;27.00;50.50;;;;;;4996482;28;20204;-93
2022/05/01 15:17:54;;;;;;;5.87;5.23;;;27.10;50.20;;;;;;4995977;28;20174;-91
2022/05/01 15:20:24;;;;;;;6.53;4.80;;;27.20;50.80;;;;;;4979919;28;20177;-91
2022/05/01 15:22:53;;;;;;;6.30;4.53;;;27.70;50.10;;;;;;4995898;28;20181;-92
2022/05/01 15:25:29;;;;;;;5.57;4.97;;;28.10;50.40;;;;;;4996093;28;20228;-91
2022/05/01 15:28:03;;;;;;;6.50;4.80;;;28.00;49.70;;;;;;4995589;28;20300;-92
2022/05/01 15:30:35;;;;;;;6.17;5.07;;;27.60;50.20;;;;;;4995760;28;20174;-92
2022/05/01 15:36:08;;;;;;;7.37;5.47;;;27.60;49.50;;;;;;4997999;28;20193;-91
2022/05/01 15:39:04;;;;;;;5.80;5.20;;;27.20;49.90;;;;;;4996857;28;20181;-91
2022/05/01 15:41:32;;;;;;;6.63;5.10;;;27.50;50.50;;;;;;4979837;28;20269;-91
2022/05/01 15:44:03;;;;;;;9.80;5.60;;;27.20;50.40;;;;;;4961677;28;20273;-91
2022/05/01 15:46:32;;;;;;;7.37;5.10;;;27.00;50.30;;;;;;4976128;28;20631;-91
2022/05/01 15:54:40;;;;;;;7.90;5.67;;;27.10;50.20;;;;;;4977570;28;20605;-91
2022/05/01 15:57:06;;;;;;;9.17;6.10;;;27.20;49.80;;;;;;4974707;28;20178;-91
2022/05/01 15:59:32;;;;;;;6.23;4.90;;;27.00;50.20;;;;;;4975861;28;20182;-91
